sensor_id;sensor_type;location;lat;lon;timestamp;P1;durP1;ratioP1;P2;durP2;ratioP2
40088;SDS011;25793;55.706;13.186;2022-08-24T00:00:13;4.65;;;2.28;;
40088;SDS011;25793;55.706;13.186;2022-08-24T00:02:43;6.20;;;2.65;;
40088;SDS011;25793;55.706;13.186;2022-08-24T00:05:10;4.57;;;2.50;;
40088;SDS011;25793;55.706;13.186;2022-08-24T00:07:40;5.20;;;2.70;;
40088;SDS011;25793;55.706;13.186;2022-08-24T00:10:08;5.75;;;2.58;;
40088;SDS011;25793;55.706;13.186;2022-08-24T00:12:35;5.57;;;2.70;;
40088;SDS011;25793;55.706;13.186;2022-08-24T00:15:03;4.88;;;2.47;;
40088;SDS011;25793;55.706;13.186;2022-08-24T00:17:31;6.15;;;2.65;;
40088;SDS011;25793;55.706;13.186;2022-08-24T00:19:59;4.50;;;2.38;;
40088;SDS011;25793;55.706;13.186;2022-08-24T00:22:26;6.18;;;2.58;;
40088;SDS011;25793;55.706;13.186;2022-08-24T00:24:54;7.03;;;2.83;;
40088;SDS011;25793;55.706;13.186;2022-08-24T00:27:21;4.80;;;2.40;;
40088;SDS011;25793;55.706;13.186;2022-08-24T00:29:48;6.22;;;2.58;;
40088;SDS011;25793;55.706;13.186;2022-08-24T00:32:15;5.82;;;2.53;;
40088;SDS011;25793;55.706;13.186;2022-08-24T00:34:43;4.68;;;2.38;;
40088;SDS011;25793;55.706;13.186;2022-08-24T00:37:25;5.97;;;2.43;;
40088;SDS011;25793;55.706;13.186;2022-08-24T00:39:54;6.28;;;2.85;;
40088;SDS011;25793;55.706;13.186;2022-08-24T00:42:22;6.50;;;2.72;;
40088;SDS011;25793;55.706;13.186;2022-08-24T00:44:49;5.43;;;2.63;;
40088;SDS011;25793;55.706;13.186;2022-08-24T00:47:18;6.32;;;2.83;;
40088;SDS011;25793;55.706;13.186;2022-08-24T00:52:33;4.88;;;2.50;;
40088;SDS011;25793;55.706;13.186;2022-08-24T00:55:07;5.10;;;2.53;;
40088;SDS011;25793;55.706;13.186;2022-08-24T00:57:40;6.60;;;2.58;;
40088;SDS011;25793;55.706;13.186;2022-08-24T01:00:13;6.43;;;2.72;;
40088;SDS011;25793;55.706;13.186;2022-08-24T01:02:44;5.20;;;2.30;;
40088;SDS011;25793;55.706;13.186;2022-08-24T01:05:14;8.40;;;3.00;;
40088;SDS011;25793;55.706;13.186;2022-08-24T01:07:44;6.85;;;2.58;;
40088;SDS011;25793;55.706;13.186;2022-08-24T01:10:15;5.15;;;2.70;;
40088;SDS011;25793;55.706;13.186;2022-08-24T01:12:45;4.70;;;2.70;;
40088;SDS011;25793;55.706;13.186;2022-08-24T01:15:27;7.37;;;2.90;;
40088;SDS011;25793;55.706;13.186;2022-08-24T01:17:56;6.43;;;2.90;;
40088;SDS011;25793;55.706;13.186;2022-08-24T01:20:42;8.57;;;2.97;;
40088;SDS011;25793;55.706;13.186;2022-08-24T01:26:02;8.25;;;2.80;;
40088;SDS011;25793;55.706;13.186;2022-08-24T01:28:29;7.43;;;2.80;;
40088;SDS011;25793;55.706;13.186;2022-08-24T01:30:58;4.87;;;2.73;;
40088;SDS011;25793;55.706;13.186;2022-08-24T01:33:27;4.63;;;2.60;;
40088;SDS011;25793;55.706;13.186;2022-08-24T01:35:58;7.00;;;2.95;;
40088;SDS011;25793;55.706;13.186;2022-08-24T01:38:30;6.93;;;3.10;;
40088;SDS011;25793;55.706;13.186;2022-08-24T01:40:59;6.07;;;2.78;;
40088;SDS011;25793;55.706;13.186;2022-08-24T01:43:27;5.05;;;2.85;;
40088;SDS011;25793;55.706;13.186;2022-08-24T01:45:56;4.60;;;3.23;;
40088;SDS011;25793;55.706;13.186;2022-08-24T01:48:23;5.87;;;3.47;;
40088;SDS011;25793;55.706;13.186;2022-08-24T01:50:51;6.95;;;3.83;;
40088;SDS011;25793;55.706;13.186;2022-08-24T01:53:20;5.70;;;3.20;;
40088;SDS011;25793;55.706;13.186;2022-08-24T01:55:46;6.07;;;3.70;;
40088;SDS011;25793;55.706;13.186;2022-08-24T01:58:14;7.50;;;3.55;;
40088;SDS011;25793;55.706;13.186;2022-08-24T02:00:42;6.60;;;3.90;;
40088;SDS011;25793;55.706;13.186;2022-08-24T02:03:11;8.85;;;4.00;;
40088;SDS011;25793;55.706;13.186;2022-08-24T02:05:39;7.35;;;3.97;;
40088;SDS011;25793;55.706;13.186;2022-08-24T02:08:07;7.03;;;4.07;;
40088;SDS011;25793;55.706;13.186;2022-08-24T02:10:34;7.13;;;4.32;;
40088;SDS011;25793;55.706;13.186;2022-08-24T02:13:02;8.90;;;4.30;;
40088;SDS011;25793;55.706;13.186;2022-08-24T02:15:31;9.88;;;4.75;;
40088;SDS011;25793;55.706;13.186;2022-08-24T02:18:08;6.33;;;4.40;;
40088;SDS011;25793;55.706;13.186;2022-08-24T02:20:41;6.70;;;4.68;;
40088;SDS011;25793;55.706;13.186;2022-08-24T02:23:08;6.45;;;4.15;;
40088;SDS011;25793;55.706;13.186;2022-08-24T02:25:35;5.53;;;3.35;;
40088;SDS011;25793;55.706;13.186;2022-08-24T02:28:02;5.72;;;3.70;;
40088;SDS011;25793;55.706;13.186;2022-08-24T02:30:29;6.25;;;3.80;;
40088;SDS011;25793;55.706;13.186;2022-08-24T02:32:58;8.38;;;3.97;;
40088;SDS011;25793;55.706;13.186;2022-08-24T02:35:26;6.95;;;3.97;;
40088;SDS011;25793;55.706;13.186;2022-08-24T02:37:55;6.82;;;3.88;;
40088;SDS011;25793;55.706;13.186;2022-08-24T02:40:25;9.80;;;5.40;;
40088;SDS011;25793;55.706;13.186;2022-08-24T02:42:53;8.95;;;4.55;;
40088;SDS011;25793;55.706;13.186;2022-08-24T02:45:20;8.02;;;4.72;;
40088;SDS011;25793;55.706;13.186;2022-08-24T02:47:48;8.27;;;4.85;;
40088;SDS011;25793;55.706;13.186;2022-08-24T02:50:16;8.00;;;4.38;;
40088;SDS011;25793;55.706;13.186;2022-08-24T02:52:44;8.25;;;5.13;;
40088;SDS011;25793;55.706;13.186;2022-08-24T02:55:13;6.38;;;4.50;;
40088;SDS011;25793;55.706;13.186;2022-08-24T02:57:46;7.43;;;4.73;;
40088;SDS011;25793;55.706;13.186;2022-08-24T03:00:14;6.10;;;3.97;;
40088;SDS011;25793;55.706;13.186;2022-08-24T03:02:48;6.60;;;4.20;;
40088;SDS011;25793;55.706;13.186;2022-08-24T03:05:17;5.00;;;4.07;;
40088;SDS011;25793;55.706;13.186;2022-08-24T03:07:44;7.53;;;4.70;;
40088;SDS011;25793;55.706;13.186;2022-08-24T03:10:11;7.07;;;4.95;;
40088;SDS011;25793;55.706;13.186;2022-08-24T03:12:38;5.43;;;4.00;;
40088;SDS011;25793;55.706;13.186;2022-08-24T03:15:07;7.30;;;4.05;;
40088;SDS011;25793;55.706;13.186;2022-08-24T03:17:36;5.80;;;4.10;;
40088;SDS011;25793;55.706;13.186;2022-08-24T03:20:07;7.32;;;4.05;;
40088;SDS011;25793;55.706;13.186;2022-08-24T03:22:37;7.18;;;4.32;;
40088;SDS011;25793;55.706;13.186;2022-08-24T03:25:04;5.05;;;3.83;;
40088;SDS011;25793;55.706;13.186;2022-08-24T03:27:31;6.35;;;4.80;;
40088;SDS011;25793;55.706;13.186;2022-08-24T03:29:58;6.10;;;4.65;;
40088;SDS011;25793;55.706;13.186;2022-08-24T03:32:26;7.07;;;4.57;;
40088;SDS011;25793;55.706;13.186;2022-08-24T03:34:53;7.55;;;5.30;;
40088;SDS011;25793;55.706;13.186;2022-08-24T03:37:21;5.72;;;3.80;;
40088;SDS011;25793;55.706;13.186;2022-08-24T03:39:47;6.83;;;5.20;;
40088;SDS011;25793;55.706;13.186;2022-08-24T03:42:16;5.32;;;4.13;;
40088;SDS011;25793;55.706;13.186;2022-08-24T03:44:43;6.00;;;4.82;;
40088;SDS011;25793;55.706;13.186;2022-08-24T03:47:10;5.82;;;4.20;;
40088;SDS011;25793;55.706;13.186;2022-08-24T03:49:37;6.40;;;4.72;;
40088;SDS011;25793;55.706;13.186;2022-08-24T03:52:05;5.82;;;4.20;;
40088;SDS011;25793;55.706;13.186;2022-08-24T03:54:32;6.75;;;5.18;;
40088;SDS011;25793;55.706;13.186;2022-08-24T03:56:59;6.68;;;4.20;;
40088;SDS011;25793;55.706;13.186;2022-08-24T03:59:27;8.38;;;4.40;;
40088;SDS011;25793;55.706;13.186;2022-08-24T04:01:56;9.27;;;4.30;;
40088;SDS011;25793;55.706;13.186;2022-08-24T04:04:25;6.93;;;4.03;;
40088;SDS011;25793;55.706;13.186;2022-08-24T04:06:52;5.43;;;3.80;;
40088;SDS011;25793;55.706;13.186;2022-08-24T04:09:22;7.22;;;4.20;;
40088;SDS011;25793;55.706;13.186;2022-08-24T04:11:49;7.13;;;4.13;;
40088;SDS011;25793;55.706;13.186;2022-08-24T04:14:20;4.75;;;3.22;;
40088;SDS011;25793;55.706;13.186;2022-08-24T04:17:04;5.72;;;3.25;;
40088;SDS011;25793;55.706;13.186;2022-08-24T04:19:37;4.32;;;2.97;;
40088;SDS011;25793;55.706;13.186;2022-08-24T04:22:25;5.07;;;3.42;;
40088;SDS011;25793;55.706;13.186;2022-08-24T04:24:54;5.57;;;3.30;;
40088;SDS011;25793;55.706;13.186;2022-08-24T04:27:21;4.25;;;2.80;;
40088;SDS011;25793;55.706;13.186;2022-08-24T04:29:48;5.25;;;3.25;;
40088;SDS011;25793;55.706;13.186;2022-08-24T04:32:17;5.72;;;3.03;;
40088;SDS011;25793;55.706;13.186;2022-08-24T04:34:44;6.63;;;3.20;;
40088;SDS011;25793;55.706;13.186;2022-08-24T04:37:13;5.40;;;2.67;;
40088;SDS011;25793;55.706;13.186;2022-08-24T04:39:41;6.93;;;2.80;;
40088;SDS011;25793;55.706;13.186;2022-08-24T04:42:29;6.22;;;2.97;;
40088;SDS011;25793;55.706;13.186;2022-08-24T04:44:59;5.03;;;2.85;;
40088;SDS011;25793;55.706;13.186;2022-08-24T04:47:25;4.45;;;2.65;;
40088;SDS011;25793;55.706;13.186;2022-08-24T04:49:52;7.20;;;2.50;;
40088;SDS011;25793;55.706;13.186;2022-08-24T04:52:19;5.10;;;2.67;;
40088;SDS011;25793;55.706;13.186;2022-08-24T04:54:45;4.82;;;2.92;;
40088;SDS011;25793;55.706;13.186;2022-08-24T04:57:19;5.28;;;2.55;;
40088;SDS011;25793;55.706;13.186;2022-08-24T04:59:46;4.03;;;2.80;;
40088;SDS011;25793;55.706;13.186;2022-08-24T05:02:13;5.43;;;2.83;;
40088;SDS011;25793;55.706;13.186;2022-08-24T05:04:43;4.97;;;2.45;;
40088;SDS011;25793;55.706;13.186;2022-08-24T05:07:09;4.13;;;2.80;;
40088;SDS011;25793;55.706;13.186;2022-08-24T05:09:39;5.03;;;2.87;;
40088;SDS011;25793;55.706;13.186;2022-08-24T05:12:06;6.60;;;3.42;;
40088;SDS011;25793;55.706;13.186;2022-08-24T05:14:37;5.97;;;3.40;;
40088;SDS011;25793;55.706;13.186;2022-08-24T05:17:04;5.10;;;3.10;;
40088;SDS011;25793;55.706;13.186;2022-08-24T05:19:35;7.20;;;3.40;;
40088;SDS011;25793;55.706;13.186;2022-08-24T05:22:03;6.65;;;3.20;;
40088;SDS011;25793;55.706;13.186;2022-08-24T05:24:30;7.80;;;3.70;;
40088;SDS011;25793;55.706;13.186;2022-08-24T05:26:57;7.22;;;3.30;;
40088;SDS011;25793;55.706;13.186;2022-08-24T05:29:27;6.63;;;3.13;;
40088;SDS011;25793;55.706;13.186;2022-08-24T05:31:54;6.35;;;3.15;;
40088;SDS011;25793;55.706;13.186;2022-08-24T05:34:21;6.38;;;3.08;;
40088;SDS011;25793;55.706;13.186;2022-08-24T05:36:49;4.60;;;2.78;;
40088;SDS011;25793;55.706;13.186;2022-08-24T05:39:31;5.93;;;3.30;;
40088;SDS011;25793;55.706;13.186;2022-08-24T05:42:03;5.70;;;2.92;;
40088;SDS011;25793;55.706;13.186;2022-08-24T05:44:36;5.03;;;3.03;;
40088;SDS011;25793;55.706;13.186;2022-08-24T05:47:03;5.60;;;3.30;;
40088;SDS011;25793;55.706;13.186;2022-08-24T05:49:30;5.60;;;3.05;;
40088;SDS011;25793;55.706;13.186;2022-08-24T05:51:57;7.67;;;3.30;;
40088;SDS011;25793;55.706;13.186;2022-08-24T05:54:24;4.83;;;2.97;;
40088;SDS011;25793;55.706;13.186;2022-08-24T05:56:58;6.53;;;3.50;;
40088;SDS011;25793;55.706;13.186;2022-08-24T05:59:35;7.43;;;3.28;;
40088;SDS011;25793;55.706;13.186;2022-08-24T06:02:08;5.88;;;3.10;;
40088;SDS011;25793;55.706;13.186;2022-08-24T06:04:35;7.25;;;3.17;;
40088;SDS011;25793;55.706;13.186;2022-08-24T06:07:04;5.32;;;3.15;;
40088;SDS011;25793;55.706;13.186;2022-08-24T06:09:37;4.20;;;3.05;;
40088;SDS011;25793;55.706;13.186;2022-08-24T06:12:04;6.50;;;2.87;;
40088;SDS011;25793;55.706;13.186;2022-08-24T06:14:32;7.05;;;2.90;;
40088;SDS011;25793;55.706;13.186;2022-08-24T06:17:02;4.97;;;3.50;;
40088;SDS011;25793;55.706;13.186;2022-08-24T06:19:31;4.10;;;3.13;;
40088;SDS011;25793;55.706;13.186;2022-08-24T06:21:58;5.87;;;3.43;;
40088;SDS011;25793;55.706;13.186;2022-08-24T06:24:27;4.13;;;3.08;;
40088;SDS011;25793;55.706;13.186;2022-08-24T06:27:15;4.68;;;2.92;;
40088;SDS011;25793;55.706;13.186;2022-08-24T06:29:52;6.18;;;3.63;;
40088;SDS011;25793;55.706;13.186;2022-08-24T06:32:42;4.15;;;2.90;;
40088;SDS011;25793;55.706;13.186;2022-08-24T06:35:19;8.00;;;2.88;;
40088;SDS011;25793;55.706;13.186;2022-08-24T06:37:46;4.10;;;2.60;;
40088;SDS011;25793;55.706;13.186;2022-08-24T06:40:14;4.50;;;2.97;;
40088;SDS011;25793;55.706;13.186;2022-08-24T06:42:42;5.78;;;2.75;;
40088;SDS011;25793;55.706;13.186;2022-08-24T06:45:20;5.03;;;2.40;;
40088;SDS011;25793;55.706;13.186;2022-08-24T06:47:49;3.22;;;2.10;;
40088;SDS011;25793;55.706;13.186;2022-08-24T06:50:17;4.55;;;2.60;;
40088;SDS011;25793;55.706;13.186;2022-08-24T06:52:49;4.73;;;2.53;;
40088;SDS011;25793;55.706;13.186;2022-08-24T06:55:16;4.25;;;2.30;;
40088;SDS011;25793;55.706;13.186;2022-08-24T06:57:43;4.15;;;2.70;;
40088;SDS011;25793;55.706;13.186;2022-08-24T07:00:15;3.75;;;2.35;;
40088;SDS011;25793;55.706;13.186;2022-08-24T07:02:43;3.13;;;2.13;;
40088;SDS011;25793;55.706;13.186;2022-08-24T07:05:10;3.78;;;2.05;;
40088;SDS011;25793;55.706;13.186;2022-08-24T07:08:00;4.00;;;2.03;;
40088;SDS011;25793;55.706;13.186;2022-08-24T07:10:31;3.28;;;2.10;;
40088;SDS011;25793;55.706;13.186;2022-08-24T07:12:59;6.38;;;2.00;;
40088;SDS011;25793;55.706;13.186;2022-08-24T07:15:26;4.10;;;2.03;;
40088;SDS011;25793;55.706;13.186;2022-08-24T07:18:04;3.60;;;1.83;;
40088;SDS011;25793;55.706;13.186;2022-08-24T07:20:38;5.15;;;2.00;;
40088;SDS011;25793;55.706;13.186;2022-08-24T07:23:11;3.80;;;1.57;;
40088;SDS011;25793;55.706;13.186;2022-08-24T07:25:40;3.60;;;2.00;;
40088;SDS011;25793;55.706;13.186;2022-08-24T07:28:14;5.43;;;2.05;;
40088;SDS011;25793;55.706;13.186;2022-08-24T07:30:42;2.73;;;1.70;;
40088;SDS011;25793;55.706;13.186;2022-08-24T07:33:11;2.90;;;1.70;;
40088;SDS011;25793;55.706;13.186;2022-08-24T07:35:39;4.05;;;2.17;;
40088;SDS011;25793;55.706;13.186;2022-08-24T07:38:07;4.72;;;2.15;;
40088;SDS011;25793;55.706;13.186;2022-08-24T07:40:34;4.18;;;1.80;;
40088;SDS011;25793;55.706;13.186;2022-08-24T07:43:22;5.30;;;1.65;;
40088;SDS011;25793;55.706;13.186;2022-08-24T07:45:49;3.33;;;1.75;;
40088;SDS011;25793;55.706;13.186;2022-08-24T07:48:17;3.05;;;1.70;;
40088;SDS011;25793;55.706;13.186;2022-08-24T07:50:45;2.92;;;1.42;;
40088;SDS011;25793;55.706;13.186;2022-08-24T07:53:13;3.03;;;1.70;;
40088;SDS011;25793;55.706;13.186;2022-08-24T07:55:51;4.13;;;1.70;;
40088;SDS011;25793;55.706;13.186;2022-08-24T07:58:19;3.70;;;1.70;;
40088;SDS011;25793;55.706;13.186;2022-08-24T08:00:47;3.90;;;1.90;;
40088;SDS011;25793;55.706;13.186;2022-08-24T08:03:15;3.35;;;1.50;;
40088;SDS011;25793;55.706;13.186;2022-08-24T08:05:43;3.47;;;1.90;;
40088;SDS011;25793;55.706;13.186;2022-08-24T08:08:10;3.65;;;1.90;;
40088;SDS011;25793;55.706;13.186;2022-08-24T08:10:38;2.90;;;1.60;;
40088;SDS011;25793;55.706;13.186;2022-08-24T08:13:06;2.67;;;1.60;;
40088;SDS011;25793;55.706;13.186;2022-08-24T08:15:34;4.13;;;1.77;;
40088;SDS011;25793;55.706;13.186;2022-08-24T08:18:05;3.45;;;1.75;;
40088;SDS011;25793;55.706;13.186;2022-08-24T08:20:36;4.05;;;1.83;;
40088;SDS011;25793;55.706;13.186;2022-08-24T08:23:05;5.70;;;2.10;;
40088;SDS011;25793;55.706;13.186;2022-08-24T08:25:57;3.92;;;1.88;;
40088;SDS011;25793;55.706;13.186;2022-08-24T08:28:47;4.05;;;1.67;;
40088;SDS011;25793;55.706;13.186;2022-08-24T08:31:14;3.50;;;2.08;;
40088;SDS011;25793;55.706;13.186;2022-08-24T08:33:41;4.38;;;2.10;;
40088;SDS011;25793;55.706;13.186;2022-08-24T08:36:09;6.13;;;2.10;;
40088;SDS011;25793;55.706;13.186;2022-08-24T08:38:45;5.72;;;2.20;;
40088;SDS011;25793;55.706;13.186;2022-08-24T09:03:36;3.35;;;1.73;;
40088;SDS011;25793;55.706;13.186;2022-08-24T09:23:17;3.10;;;1.70;;
40088;SDS011;25793;55.706;13.186;2022-08-24T09:39:37;4.40;;;1.90;;
40088;SDS011;25793;55.706;13.186;2022-08-24T10:01:37;3.80;;;1.70;;
40088;SDS011;25793;55.706;13.186;2022-08-24T10:04:34;4.38;;;1.67;;
40088;SDS011;25793;55.706;13.186;2022-08-24T10:15:54;6.47;;;2.10;;
40088;SDS011;25793;55.706;13.186;2022-08-24T10:18:34;2.92;;;1.50;;
40088;SDS011;25793;55.706;13.186;2022-08-24T10:30:02;2.10;;;1.15;;
40088;SDS011;25793;55.706;13.186;2022-08-24T10:35:34;2.88;;;1.38;;
40088;SDS011;25793;55.706;13.186;2022-08-24T10:47:19;4.53;;;1.25;;
40088;SDS011;25793;55.706;13.186;2022-08-24T10:50:11;3.72;;;1.48;;
40088;SDS011;25793;55.706;13.186;2022-08-24T10:53:04;3.28;;;1.48;;
40088;SDS011;25793;55.706;13.186;2022-08-24T10:55:44;2.58;;;1.35;;
40088;SDS011;25793;55.706;13.186;2022-08-24T11:01:26;1.90;;;1.35;;
40088;SDS011;25793;55.706;13.186;2022-08-24T11:06:37;4.65;;;1.25;;
40088;SDS011;25793;55.706;13.186;2022-08-24T11:09:09;1.77;;;1.20;;
40088;SDS011;25793;55.706;13.186;2022-08-24T11:11:46;5.68;;;1.67;;
40088;SDS011;25793;55.706;13.186;2022-08-24T11:16:42;6.60;;;1.13;;
40088;SDS011;25793;55.706;13.186;2022-08-24T11:19:11;4.50;;;1.40;;
40088;SDS011;25793;55.706;13.186;2022-08-24T11:21:51;3.15;;;1.17;;
40088;SDS011;25793;55.706;13.186;2022-08-24T11:24:28;2.57;;;1.30;;
40088;SDS011;25793;55.706;13.186;2022-08-24T11:27:20;2.45;;;1.20;;
40088;SDS011;25793;55.706;13.186;2022-08-24T11:29:58;7.32;;;1.30;;
40088;SDS011;25793;55.706;13.186;2022-08-24T11:35:01;3.65;;;1.33;;
40088;SDS011;25793;55.706;13.186;2022-08-24T11:37:41;2.58;;;1.05;;
40088;SDS011;25793;55.706;13.186;2022-08-24T11:40:08;3.40;;;1.65;;
40088;SDS011;25793;55.706;13.186;2022-08-24T11:45:18;2.80;;;1.50;;
40088;SDS011;25793;55.706;13.186;2022-08-24T11:47:54;5.88;;;1.30;;
40088;SDS011;25793;55.706;13.186;2022-08-24T11:50:44;2.65;;;0.90;;
40088;SDS011;25793;55.706;13.186;2022-08-24T12:04:11;3.15;;;1.05;;
40088;SDS011;25793;55.706;13.186;2022-08-24T12:06:58;2.42;;;0.93;;
40088;SDS011;25793;55.706;13.186;2022-08-24T12:14:56;3.30;;;1.02;;
40088;SDS011;25793;55.706;13.186;2022-08-24T12:20:25;3.10;;;1.10;;
40088;SDS011;25793;55.706;13.186;2022-08-24T12:23:08;4.90;;;1.02;;
40088;SDS011;25793;55.706;13.186;2022-08-24T12:25:40;4.22;;;1.63;;
40088;SDS011;25793;55.706;13.186;2022-08-24T12:28:37;4.25;;;1.52;;
40088;SDS011;25793;55.706;13.186;2022-08-24T12:31:20;1.95;;;1.40;;
40088;SDS011;25793;55.706;13.186;2022-08-24T12:33:55;3.17;;;1.45;;
40088;SDS011;25793;55.706;13.186;2022-08-24T12:36:29;5.25;;;1.30;;
40088;SDS011;25793;55.706;13.186;2022-08-24T12:39:04;1.90;;;0.90;;
40088;SDS011;25793;55.706;13.186;2022-08-24T12:41:38;2.25;;;1.10;;
40088;SDS011;25793;55.706;13.186;2022-08-24T12:44:14;3.63;;;1.50;;
40088;SDS011;25793;55.706;13.186;2022-08-24T12:46:42;2.33;;;1.08;;
40088;SDS011;25793;55.706;13.186;2022-08-24T12:52:21;2.07;;;1.13;;
40088;SDS011;25793;55.706;13.186;2022-08-24T12:55:13;3.70;;;1.00;;
40088;SDS011;25793;55.706;13.186;2022-08-24T12:58:23;2.43;;;1.10;;
40088;SDS011;25793;55.706;13.186;2022-08-24T13:01:21;5.95;;;1.27;;
40088;SDS011;25793;55.706;13.186;2022-08-24T13:06:38;2.75;;;1.23;;
40088;SDS011;25793;55.706;13.186;2022-08-24T13:09:16;4.85;;;1.15;;
40088;SDS011;25793;55.706;13.186;2022-08-24T13:11:52;2.47;;;1.15;;
40088;SDS011;25793;55.706;13.186;2022-08-24T13:14:22;2.63;;;1.20;;
40088;SDS011;25793;55.706;13.186;2022-08-24T13:21:55;2.70;;;1.13;;
40088;SDS011;25793;55.706;13.186;2022-08-24T13:26:55;2.67;;;1.23;;
40088;SDS011;25793;55.706;13.186;2022-08-24T13:29:27;3.58;;;1.40;;
40088;SDS011;25793;55.706;13.186;2022-08-24T13:31:59;6.47;;;1.90;;
40088;SDS011;25793;55.706;13.186;2022-08-24T13:34:40;5.57;;;1.70;;
40088;SDS011;25793;55.706;13.186;2022-08-24T13:37:11;3.87;;;1.60;;
40088;SDS011;25793;55.706;13.186;2022-08-24T13:43:00;5.13;;;1.85;;
40088;SDS011;25793;55.706;13.186;2022-08-24T13:48:53;4.83;;;2.00;;
40088;SDS011;25793;55.706;13.186;2022-08-24T13:56:48;3.38;;;1.52;;
40088;SDS011;25793;55.706;13.186;2022-08-24T14:05:04;6.17;;;1.60;;
40088;SDS011;25793;55.706;13.186;2022-08-24T14:10:42;6.20;;;1.35;;
40088;SDS011;25793;55.706;13.186;2022-08-24T14:24:57;3.50;;;1.70;;
40088;SDS011;25793;55.706;13.186;2022-08-24T14:35:29;3.13;;;1.75;;
40088;SDS011;25793;55.706;13.186;2022-08-24T14:38:03;5.30;;;2.00;;
40088;SDS011;25793;55.706;13.186;2022-08-24T14:46:32;3.72;;;2.00;;
40088;SDS011;25793;55.706;13.186;2022-08-24T14:49:26;3.72;;;1.65;;
40088;SDS011;25793;55.706;13.186;2022-08-24T14:58:09;6.00;;;2.00;;
40088;SDS011;25793;55.706;13.186;2022-08-24T15:00:48;4.78;;;2.20;;
40088;SDS011;25793;55.706;13.186;2022-08-24T15:03:23;5.80;;;3.00;;
40088;SDS011;25793;55.706;13.186;2022-08-24T15:06:28;5.68;;;2.78;;
40088;SDS011;25793;55.706;13.186;2022-08-24T15:11:57;4.47;;;4.07;;
40088;SDS011;25793;55.706;13.186;2022-08-24T15:14:40;4.07;;;3.03;;
40088;SDS011;25793;55.706;13.186;2022-08-24T15:17:18;9.90;;;3.70;;
40088;SDS011;25793;55.706;13.186;2022-08-24T15:20:00;5.43;;;2.53;;
40088;SDS011;25793;55.706;13.186;2022-08-24T15:22:53;6.15;;;2.60;;
40088;SDS011;25793;55.706;13.186;2022-08-24T15:28:06;5.13;;;3.10;;
40088;SDS011;25793;55.706;13.186;2022-08-24T15:30:34;5.90;;;3.33;;
40088;SDS011;25793;55.706;13.186;2022-08-24T15:35:36;3.70;;;2.70;;
40088;SDS011;25793;55.706;13.186;2022-08-24T15:41:08;4.77;;;2.40;;
40088;SDS011;25793;55.706;13.186;2022-08-24T15:43:41;5.47;;;2.40;;
40088;SDS011;25793;55.706;13.186;2022-08-24T15:46:36;4.85;;;2.38;;
40088;SDS011;25793;55.706;13.186;2022-08-24T15:51:54;4.13;;;2.80;;
40088;SDS011;25793;55.706;13.186;2022-08-24T15:56:55;3.53;;;2.90;;
40088;SDS011;25793;55.706;13.186;2022-08-24T15:59:29;4.13;;;2.55;;
40088;SDS011;25793;55.706;13.186;2022-08-24T16:02:26;5.75;;;3.00;;
40088;SDS011;25793;55.706;13.186;2022-08-24T16:13:32;6.03;;;3.67;;
40088;SDS011;25793;55.706;13.186;2022-08-24T16:15:58;5.70;;;3.22;;
40088;SDS011;25793;55.706;13.186;2022-08-24T16:18:47;4.47;;;3.08;;
40088;SDS011;25793;55.706;13.186;2022-08-24T16:21:37;4.55;;;3.30;;
40088;SDS011;25793;55.706;13.186;2022-08-24T16:24:33;5.07;;;2.92;;
40088;SDS011;25793;55.706;13.186;2022-08-24T16:35:13;4.35;;;2.75;;
40088;SDS011;25793;55.706;13.186;2022-08-24T16:37:42;5.80;;;3.28;;
40088;SDS011;25793;55.706;13.186;2022-08-24T16:40:09;4.53;;;2.92;;
40088;SDS011;25793;55.706;13.186;2022-08-24T16:42:39;4.75;;;2.80;;
40088;SDS011;25793;55.706;13.186;2022-08-24T16:45:07;6.03;;;3.05;;
40088;SDS011;25793;55.706;13.186;2022-08-24T16:47:35;5.90;;;3.10;;
40088;SDS011;25793;55.706;13.186;2022-08-24T16:50:03;4.22;;;2.80;;
40088;SDS011;25793;55.706;13.186;2022-08-24T16:52:31;4.20;;;2.97;;
40088;SDS011;25793;55.706;13.186;2022-08-24T16:54:58;4.35;;;3.00;;
40088;SDS011;25793;55.706;13.186;2022-08-24T16:57:27;5.47;;;3.10;;
40088;SDS011;25793;55.706;13.186;2022-08-24T16:59:56;4.77;;;2.67;;
40088;SDS011;25793;55.706;13.186;2022-08-24T17:02:23;4.20;;;2.80;;
40088;SDS011;25793;55.706;13.186;2022-08-24T17:04:53;4.80;;;3.08;;
40088;SDS011;25793;55.706;13.186;2022-08-24T17:07:23;6.82;;;2.85;;
40088;SDS011;25793;55.706;13.186;2022-08-24T17:09:57;3.30;;;2.40;;
40088;SDS011;25793;55.706;13.186;2022-08-24T17:12:30;5.18;;;2.60;;
40088;SDS011;25793;55.706;13.186;2022-08-24T17:14:57;5.40;;;2.63;;
40088;SDS011;25793;55.706;13.186;2022-08-24T17:17:24;3.92;;;2.75;;
40088;SDS011;25793;55.706;13.186;2022-08-24T17:19:51;6.05;;;2.83;;
40088;SDS011;25793;55.706;13.186;2022-08-24T17:22:21;4.43;;;2.83;;
40088;SDS011;25793;55.706;13.186;2022-08-24T17:24:48;5.47;;;3.50;;
40088;SDS011;25793;55.706;13.186;2022-08-24T17:27:16;4.40;;;3.05;;
40088;SDS011;25793;55.706;13.186;2022-08-24T17:29:46;3.90;;;3.00;;
40088;SDS011;25793;55.706;13.186;2022-08-24T17:32:13;4.55;;;3.00;;
40088;SDS011;25793;55.706;13.186;2022-08-24T17:34:41;5.05;;;3.17;;
40088;SDS011;25793;55.706;13.186;2022-08-24T17:37:08;3.75;;;2.70;;
40088;SDS011;25793;55.706;13.186;2022-08-24T17:39:35;6.78;;;3.10;;
40088;SDS011;25793;55.706;13.186;2022-08-24T17:42:02;5.30;;;3.20;;
40088;SDS011;25793;55.706;13.186;2022-08-24T17:44:46;5.20;;;2.72;;
40088;SDS011;25793;55.706;13.186;2022-08-24T17:47:16;5.28;;;3.40;;
40088;SDS011;25793;55.706;13.186;2022-08-24T17:49:44;5.13;;;2.85;;
40088;SDS011;25793;55.706;13.186;2022-08-24T17:52:12;4.30;;;3.05;;
40088;SDS011;25793;55.706;13.186;2022-08-24T17:54:42;4.75;;;3.30;;
40088;SDS011;25793;55.706;13.186;2022-08-24T17:57:10;5.82;;;4.47;;
40088;SDS011;25793;55.706;13.186;2022-08-24T17:59:38;8.03;;;4.47;;
40088;SDS011;25793;55.706;13.186;2022-08-24T18:02:06;6.60;;;4.25;;
40088;SDS011;25793;55.706;13.186;2022-08-24T18:04:35;4.90;;;4.50;;
40088;SDS011;25793;55.706;13.186;2022-08-24T18:07:05;5.93;;;5.15;;
40088;SDS011;25793;55.706;13.186;2022-08-24T18:09:51;5.15;;;4.65;;
40088;SDS011;25793;55.706;13.186;2022-08-24T18:12:21;6.10;;;4.83;;
40088;SDS011;25793;55.706;13.186;2022-08-24T18:14:50;7.53;;;4.60;;
40088;SDS011;25793;55.706;13.186;2022-08-24T18:17:19;5.30;;;4.00;;
40088;SDS011;25793;55.706;13.186;2022-08-24T18:19:48;5.82;;;5.15;;
40088;SDS011;25793;55.706;13.186;2022-08-24T18:22:16;6.35;;;3.42;;
40088;SDS011;25793;55.706;13.186;2022-08-24T18:24:42;8.17;;;4.23;;
40088;SDS011;25793;55.706;13.186;2022-08-24T18:27:11;6.75;;;6.10;;
40088;SDS011;25793;55.706;13.186;2022-08-24T18:29:44;9.50;;;6.10;;
40088;SDS011;25793;55.706;13.186;2022-08-24T18:32:11;8.30;;;7.70;;
40088;SDS011;25793;55.706;13.186;2022-08-24T18:34:38;6.03;;;5.30;;
40088;SDS011;25793;55.706;13.186;2022-08-24T18:37:08;6.22;;;4.47;;
40088;SDS011;25793;55.706;13.186;2022-08-24T18:39:35;5.93;;;4.85;;
40088;SDS011;25793;55.706;13.186;2022-08-24T18:42:02;6.78;;;4.78;;
40088;SDS011;25793;55.706;13.186;2022-08-24T18:44:34;6.10;;;4.85;;
40088;SDS011;25793;55.706;13.186;2022-08-24T18:47:02;5.68;;;4.18;;
40088;SDS011;25793;55.706;13.186;2022-08-24T18:49:29;6.97;;;4.13;;
40088;SDS011;25793;55.706;13.186;2022-08-24T18:51:55;4.60;;;4.05;;
40088;SDS011;25793;55.706;13.186;2022-08-24T18:54:34;7.57;;;3.23;;
40088;SDS011;25793;55.706;13.186;2022-08-24T18:57:03;4.65;;;2.65;;
40088;SDS011;25793;55.706;13.186;2022-08-24T18:59:32;6.47;;;2.90;;